Domov               UVHVVR             MKGP            O straneh              
ZDRAVSTVENO VARSTVO RASTLIN
  MREŽA AGROMET. POSTAJ
 ► PROGNOSTIČNA OBVESTILA
AGROMETEOROLOŠKI PODATKI -
ARSO
OBVLADOVANJE TVEGANJ ZARADI
NEUGODNIH VREMENSKIH RAZMER
  ► NARAVNE NESREČE
  ► SUŠA/MOČA
  ► NAMAKANJE
  ► ŽLED (gozdarstvo)
KARTOGRAFSKI PRIKAZI
SPLETNE POVEZAVE
PROJEKTI IN PUBLIKACIJE

AGROMETEOROLOŠKA MREŽA: VREMENSKE POSTAJE IN FENOLOŠKA OPAZOVANJA

Pregled podatkov za lokacijo Kasaze (Mirosan), meteorološka postaja 27394

Pregled senzorjev na lokaciji

ID Ime Zadnja
vrednost
Datum
zadnje
spremembe
Tip
senzorja
521 Temperatura 2 m ( °C) 29,57 °C 17.8.2017 18:30 Generic -40 - +60 °C
522 Relativna vlaga 2 m (% RH) 50,87 % RH 17.8.2017 18:30 Generic 0 - 100 %
546 Omočenost lista (U) 0 U 17.8.2017 18:30 A730WET
4028 Padavine 0.2 mm (mm) 0 mm 17.8.2017 18:30 Generic 0.2 mm

Pregled podatkov zadnjih 24 ur

Zap.
št.
Datum in čas Kasaze (Mirosan)
Omočenost
lista
Padavine
0.2
mm
Relativna
vlaga
2
m
Temperatura
2
m
0 17.8.2017 17:30 0 0 50,87 29,57
1 17.8.2017 17:00 0 0 47,45 30,84
2 17.8.2017 16:30 0 0 43,69 32,01
3 17.8.2017 16:00 0 0 41,98 32,67
4 17.8.2017 15:30 0 0 42,78 32,45
5 17.8.2017 15:00 0 0 43,71 32,26
6 17.8.2017 14:30 0 0 45,47 31,84
7 17.8.2017 14:00 0 0 46,94 31,14
8 17.8.2017 13:30 0 0 46,4 30,31
9 17.8.2017 13:00 0 0 49,82 29,06
10 17.8.2017 12:30 0 0 54,8 28,74
11 17.8.2017 12:00 0 0 52,63 28,45
12 17.8.2017 11:30 0 0 51,92 28,23
13 17.8.2017 11:00 0 0 53,87 27,94
14 17.8.2017 10:30 0 0 54,9 27,4
15 17.8.2017 10:00 0 0 55,31 27,23
16 17.8.2017 09:30 0 0 60,51 26,67
17 17.8.2017 09:00 0 0 60 25,4
18 17.8.2017 08:30 0 0 63,25 23,61
19 17.8.2017 08:00 0 0 75,24 21,44
20 17.8.2017 07:30 0 0 76,48 20,1
21 17.8.2017 07:00 0 0 79,44 19,51
22 17.8.2017 06:30 0 0 81,29 18,8
23 17.8.2017 06:00 0 0 83,39 18
24 17.8.2017 05:30 1 0 88,01 16,9
25 17.8.2017 05:00 3 0 92,5 16,02
26 17.8.2017 04:30 1 0 92,14 16,26
27 17.8.2017 04:00 1 0 90,06 16,87
28 17.8.2017 03:30 0 0 87,33 17,46
29 17.8.2017 03:00 0 0 85,84 18,02
30 17.8.2017 02:30 0 0 82,64 18,66
31 17.8.2017 02:00 0 0 80,73 19,05
32 17.8.2017 01:30 0 0 80,81 18,88
33 17.8.2017 01:00 0 0 83,1 18,83
34 17.8.2017 00:30 0 0 81,73 19,05
35 17.8.2017 00:00 0 0 80,78 19,29
36 16.8.2017 23:30 0 0 82,93 19,32
37 16.8.2017 23:00 0 0 81,22 19,76
38 16.8.2017 22:30 0 0 78,24 20,32
39 16.8.2017 22:00 0 0 77,12 20,56
40 16.8.2017 21:30 0 0 77,12 20,76
41 16.8.2017 21:00 0 0 76,97 21,03
42 16.8.2017 20:30 0 0 76,34 21,44
43 16.8.2017 20:00 0 0 70,55 21,71
44 16.8.2017 19:30 0 0 69,23 22,03
© 2011 Ministrstvo za kmetijstvo, gozdarstvo in prehrano. Vse pravice pridržane.